This is the latest recevied weather packets stored in our database for station/object DW2488. If no packets are shown the sender has not sent any weather packets the latest 10 day(s).
| Time | Temp. | Humidity | Pressure | Rain* | Wind** | Luminosity | Snow |
|---|---|---|---|---|---|---|---|
| 1777954524 | 22.22° C | 43% | 1017.1 hPa | 0 mm | - | 40 W/m² | - |
| 1777953625 | 22.22° C | 42% | 1017.1 hPa | 0 mm | - | 499 W/m² | - |
| 1777952719 | 22.78° C | 42% | 1017 hPa | 0 mm | - | 531 W/m² | - |
| 1777951819 | 22.78° C | 41% | 1017 hPa | 0 mm | - | 559 W/m² | - |
| 1777950916 | 22.78° C | 44% | 1017.2 hPa | 0 mm | - | 587 W/m² | - |
| 1777950015 | 22.22° C | 45% | 1017.3 hPa | 0 mm | - | 617 W/m² | - |
| 1777949120 | 21.67° C | 49% | 1017.2 hPa | 0 mm | - | 642 W/m² | - |
| 1777948214 | 21.67° C | 49% | 1017.4 hPa | 0 mm | - | 664 W/m² | - |
| 1777947306 | 21.11° C | 51% | 1017.7 hPa | 0 mm | - | 680 W/m² | - |
| 1777946400 | 20.56° C | 54% | 1017.9 hPa | 0 mm | - | 673 W/m² | - |
| 1777945497 | 20.56° C | 54% | 1017.9 hPa | 0 mm | - | 664 W/m² | - |
| 1777944601 | 20° C | 56% | 1018.1 hPa | 0 mm | - | 654 W/m² | - |
| 1777943696 | 19.44° C | 61% | 1018.3 hPa | 0 mm | - | 642 W/m² | - |
| 1777942793 | 18.89° C | 58% | 1018.6 hPa | 0 mm | - | 624 W/m² | - |
| 1777941895 | 18.89° C | 59% | 1018.9 hPa | 0 mm | - | 606 W/m² | - |
| 1777940990 | 18.33° C | 59% | 1018.9 hPa | 0 mm | - | 585 W/m² | - |
| 1777940090 | 18.33° C | 62% | 1019 hPa | 0 mm | - | 563 W/m² | - |
| 1777939189 | 17.78° C | 62% | 1019.3 hPa | 0 mm | - | 534 W/m² | - |
| 1777938285 | 17.22° C | 63% | 1019.1 hPa | 0 mm | - | 504 W/m² | - |
| 1777937391 | 16.67° C | 65% | 1019 hPa | 0 mm | - | 469 W/m² | - |
| 1777936483 | 16.11° C | 69% | 1018.5 hPa | 0 mm | - | 436 W/m² | - |
| 1777935581 | 15.56° C | 71% | 1019 hPa | 0 mm | - | 397 W/m² | - |
| 1777934679 | 14.44° C | 79% | 1018.9 hPa | 0 mm | - | 35 W/m² | - |
| 1777933775 | 11.67° C | 95% | 1019 hPa | 0.25 mm | - | 37 W/m² | - |
| 1777932886 | 10° C | 94% | 1019 hPa | 0.25 mm | - | 25 W/m² | - |
* Rain latest hour (hover to see other rain measurements)
** Current wind speed in m/s (hover to see current wind gust speed)